sensor_id;sensor_type;location;lat;lon;timestamp;pressure;altitude;pressure_sealevel;temperature;humidity
44926;BME280;30662;51.210;7.656;2023-04-06T00:01:41;149628.84;;;3.26;59.64
44926;BME280;30662;51.210;7.656;2023-04-06T00:04:07;149664.09;;;3.41;59.09
44926;BME280;30662;51.210;7.656;2023-04-06T00:06:33;149656.53;;;3.38;58.82
44926;BME280;30662;51.210;7.656;2023-04-06T00:09:00;149649.00;;;3.35;59.05
44926;BME280;30662;51.210;7.656;2023-04-06T00:11:26;149594.88;;;3.13;59.64
44926;BME280;30662;51.210;7.656;2023-04-06T00:13:52;149594.88;;;3.13;59.66
44926;BME280;30662;51.210;7.656;2023-04-06T00:16:19;149573.44;;;3.04;60.05
44926;BME280;30662;51.210;7.656;2023-04-06T00:18:47;149567.16;;;3.01;59.85
44926;BME280;30662;51.210;7.656;2023-04-06T00:21:14;149525.63;;;2.85;60.16
44926;BME280;30662;51.210;7.656;2023-04-06T00:23:41;149555.81;;;2.97;59.87
44926;BME280;30662;51.210;7.656;2023-04-06T00:26:08;149593.59;;;3.12;60.06
44926;BME280;30662;51.210;7.656;2023-04-06T00:28:34;149563.38;;;3.00;61.02
44926;BME280;30662;51.210;7.656;2023-04-06T00:31:00;149611.22;;;3.19;59.13
44926;BME280;30662;51.210;7.656;2023-04-06T00:33:26;149574.72;;;3.04;60.00
44926;BME280;30662;51.210;7.656;2023-04-06T00:35:52;149543.25;;;2.92;59.90
44926;BME280;30662;51.210;7.656;2023-04-06T00:38:19;149577.25;;;3.06;60.24
44926;BME280;30662;51.210;7.656;2023-04-06T00:40:45;149516.81;;;2.81;60.83
44926;BME280;30662;51.210;7.656;2023-04-06T00:43:12;149479.06;;;2.66;61.37
44926;BME280;30662;51.210;7.656;2023-04-06T00:45:39;149514.28;;;2.80;60.83
44926;BME280;30662;51.210;7.656;2023-04-06T00:48:06;149509.28;;;2.78;61.29
44926;BME280;30662;51.210;7.656;2023-04-06T00:50:33;149534.41;;;2.88;60.86
44926;BME280;30662;51.210;7.656;2023-04-06T00:52:59;149528.13;;;2.86;60.98
44926;BME280;30662;51.210;7.656;2023-04-06T00:55:29;149540.75;;;2.91;60.81
44926;BME280;30662;51.210;7.656;2023-04-06T00:57:59;149550.78;;;2.95;60.66
44926;BME280;30662;51.210;7.656;2023-04-06T01:00:26;149554.56;;;2.96;60.42
44926;BME280;30662;51.210;7.656;2023-04-06T01:02:52;149563.38;;;3.00;60.49
44926;BME280;30662;51.210;7.656;2023-04-06T01:05:19;149544.50;;;2.92;60.83
44926;BME280;30662;51.210;7.656;2023-04-06T01:07:45;149533.16;;;2.88;60.27
44926;BME280;30662;51.210;7.656;2023-04-06T01:10:22;149538.22;;;2.90;60.94
44926;BME280;30662;51.210;7.656;2023-04-06T01:12:48;149569.66;;;3.02;59.76
44926;BME280;30662;51.210;7.656;2023-04-06T01:15:14;149603.66;;;3.16;59.17
44926;BME280;30662;51.210;7.656;2023-04-06T01:17:41;149587.28;;;3.10;58.90
44926;BME280;30662;51.210;7.656;2023-04-06T01:20:07;149601.13;;;3.15;59.20
44926;BME280;30662;51.210;7.656;2023-04-06T01:22:33;149594.88;;;3.13;58.90
44926;BME280;30662;51.210;7.656;2023-04-06T01:24:59;149584.78;;;3.09;59.06
44926;BME280;30662;51.210;7.656;2023-04-06T01:27:25;149584.78;;;3.09;59.02
44926;BME280;30662;51.210;7.656;2023-04-06T01:29:52;149598.63;;;3.14;58.09
44926;BME280;30662;51.210;7.656;2023-04-06T01:32:18;149581.00;;;3.07;58.19
44926;BME280;30662;51.210;7.656;2023-04-06T01:34:44;149586.03;;;3.09;58.53
44926;BME280;30662;51.210;7.656;2023-04-06T01:37:10;149604.91;;;3.17;58.06
44926;BME280;30662;51.210;7.656;2023-04-06T01:39:36;149584.78;;;3.09;58.41
44926;BME280;30662;51.210;7.656;2023-04-06T01:42:02;149594.88;;;3.13;58.58
44926;BME280;30662;51.210;7.656;2023-04-06T01:44:28;149594.88;;;3.13;58.35
44926;BME280;30662;51.210;7.656;2023-04-06T01:46:56;149613.75;;;3.20;58.23
44926;BME280;30662;51.210;7.656;2023-04-06T01:49:22;149601.13;;;3.15;58.03
44926;BME280;30662;51.210;7.656;2023-04-06T01:51:48;149640.16;;;3.31;57.33
44926;BME280;30662;51.210;7.656;2023-04-06T01:54:14;149612.50;;;3.20;57.54
44926;BME280;30662;51.210;7.656;2023-04-06T01:56:40;149596.13;;;3.13;57.41
44926;BME280;30662;51.210;7.656;2023-04-06T01:59:07;149618.75;;;3.22;56.87
44926;BME280;30662;51.210;7.656;2023-04-06T02:01:33;149615.00;;;3.21;56.71
44926;BME280;30662;51.210;7.656;2023-04-06T02:03:59;149608.66;;;3.18;57.37
44926;BME280;30662;51.210;7.656;2023-04-06T02:06:25;149597.38;;;3.14;57.20
44926;BME280;30662;51.210;7.656;2023-04-06T02:08:53;149591.06;;;3.11;57.66
44926;BME280;30662;51.210;7.656;2023-04-06T02:11:20;149582.25;;;3.08;57.15
44926;BME280;30662;51.210;7.656;2023-04-06T02:13:46;149579.75;;;3.07;57.09
44926;BME280;30662;51.210;7.656;2023-04-06T02:16:12;149567.16;;;3.01;57.55
44926;BME280;30662;51.210;7.656;2023-04-06T02:18:38;149542.00;;;2.91;57.90
44926;BME280;30662;51.210;7.656;2023-04-06T02:21:04;149581.00;;;3.07;58.35
44926;BME280;30662;51.210;7.656;2023-04-06T02:23:30;149604.91;;;3.17;57.70
44926;BME280;30662;51.210;7.656;2023-04-06T02:25:56;149589.78;;;3.11;57.52
44926;BME280;30662;51.210;7.656;2023-04-06T02:28:22;149588.53;;;3.10;57.81
44926;BME280;30662;51.210;7.656;2023-04-06T02:30:48;149613.75;;;3.20;57.41
44926;BME280;30662;51.210;7.656;2023-04-06T02:33:14;149577.25;;;3.06;57.82
44926;BME280;30662;51.210;7.656;2023-04-06T02:35:40;149572.16;;;3.03;57.30
44926;BME280;30662;51.210;7.656;2023-04-06T02:38:06;149579.75;;;3.07;56.32
44926;BME280;30662;51.210;7.656;2023-04-06T02:40:32;149563.38;;;3.00;56.14
44926;BME280;30662;51.210;7.656;2023-04-06T02:42:58;149572.16;;;3.03;56.61
44926;BME280;30662;51.210;7.656;2023-04-06T02:45:24;149594.88;;;3.13;55.69
44926;BME280;30662;51.210;7.656;2023-04-06T02:47:50;149569.66;;;3.02;55.74
44926;BME280;30662;51.210;7.656;2023-04-06T02:50:16;149596.13;;;3.13;54.94
44926;BME280;30662;51.210;7.656;2023-04-06T02:52:42;149584.78;;;3.09;54.68
44926;BME280;30662;51.210;7.656;2023-04-06T02:55:08;149579.75;;;3.07;53.63
44926;BME280;30662;51.210;7.656;2023-04-06T02:57:34;149586.03;;;3.09;52.78
44926;BME280;30662;51.210;7.656;2023-04-06T03:00:01;149568.41;;;3.02;52.07
44926;BME280;30662;51.210;7.656;2023-04-06T03:02:27;149569.66;;;3.02;51.55
44926;BME280;30662;51.210;7.656;2023-04-06T03:04:53;149608.66;;;3.18;49.91
44926;BME280;30662;51.210;7.656;2023-04-06T03:07:19;149577.25;;;3.06;50.80
44926;BME280;30662;51.210;7.656;2023-04-06T03:09:45;149582.25;;;3.08;49.81
44926;BME280;30662;51.210;7.656;2023-04-06T03:12:11;149587.28;;;3.10;49.64
44926;BME280;30662;51.210;7.656;2023-04-06T03:14:37;149584.78;;;3.09;48.66
44926;BME280;30662;51.210;7.656;2023-04-06T03:17:03;149608.66;;;3.18;48.72
44926;BME280;30662;51.210;7.656;2023-04-06T03:19:29;149597.38;;;3.14;49.01
44926;BME280;30662;51.210;7.656;2023-04-06T03:21:55;149591.06;;;3.11;50.54
44926;BME280;30662;51.210;7.656;2023-04-06T03:24:21;149598.63;;;3.14;48.45
44926;BME280;30662;51.210;7.656;2023-04-06T03:26:47;149611.22;;;3.19;49.40
44926;BME280;30662;51.210;7.656;2023-04-06T03:29:13;149616.25;;;3.21;48.94
44926;BME280;30662;51.210;7.656;2023-04-06T03:31:40;149616.25;;;3.21;48.68
44926;BME280;30662;51.210;7.656;2023-04-06T03:34:06;149641.41;;;3.31;48.25
44926;BME280;30662;51.210;7.656;2023-04-06T03:36:34;149577.25;;;3.06;49.18
44926;BME280;30662;51.210;7.656;2023-04-06T03:39:00;149583.50;;;3.08;48.83
44926;BME280;30662;51.210;7.656;2023-04-06T03:41:26;149586.03;;;3.09;49.94
44926;BME280;30662;51.210;7.656;2023-04-06T03:43:55;149560.88;;;2.99;48.81
44926;BME280;30662;51.210;7.656;2023-04-06T03:46:22;149584.78;;;3.09;49.28
44926;BME280;30662;51.210;7.656;2023-04-06T03:48:54;149573.44;;;3.04;49.89
44926;BME280;30662;51.210;7.656;2023-04-06T03:51:20;149574.72;;;3.04;49.66
44926;BME280;30662;51.210;7.656;2023-04-06T03:53:46;149568.41;;;3.02;49.53
44926;BME280;30662;51.210;7.656;2023-04-06T03:56:12;149584.78;;;3.09;49.52
44926;BME280;30662;51.210;7.656;2023-04-06T03:58:39;149581.00;;;3.07;49.88
44926;BME280;30662;51.210;7.656;2023-04-06T04:01:20;149545.75;;;2.93;49.68
44926;BME280;30662;51.210;7.656;2023-04-06T04:03:48;149555.81;;;2.97;50.29
44926;BME280;30662;51.210;7.656;2023-04-06T04:06:17;149550.78;;;2.95;49.87
44926;BME280;30662;51.210;7.656;2023-04-06T04:08:43;149565.91;;;3.01;50.52
44926;BME280;30662;51.210;7.656;2023-04-06T04:11:09;149535.66;;;2.89;50.60
44926;BME280;30662;51.210;7.656;2023-04-06T04:13:35;149570.91;;;3.03;49.90
44926;BME280;30662;51.210;7.656;2023-04-06T04:16:01;149524.38;;;2.84;50.54
44926;BME280;30662;51.210;7.656;2023-04-06T04:18:27;149520.63;;;2.83;50.86
44926;BME280;30662;51.210;7.656;2023-04-06T04:20:53;149510.53;;;2.79;50.83
44926;BME280;30662;51.210;7.656;2023-04-06T04:23:19;149491.66;;;2.71;50.92
44926;BME280;30662;51.210;7.656;2023-04-06T04:25:45;149479.06;;;2.66;51.20
44926;BME280;30662;51.210;7.656;2023-04-06T04:28:11;149481.56;;;2.67;51.29
44926;BME280;30662;51.210;7.656;2023-04-06T04:30:37;149475.28;;;2.64;51.60
44926;BME280;30662;51.210;7.656;2023-04-06T04:33:03;149476.53;;;2.65;50.92
44926;BME280;30662;51.210;7.656;2023-04-06T04:35:29;149472.78;;;2.63;50.50
44926;BME280;30662;51.210;7.656;2023-04-06T04:37:56;149477.78;;;2.65;50.88
44926;BME280;30662;51.210;7.656;2023-04-06T04:40:22;149501.69;;;2.75;50.45
44926;BME280;30662;51.210;7.656;2023-04-06T04:42:48;149492.91;;;2.71;50.31
44926;BME280;30662;51.210;7.656;2023-04-06T04:45:14;149470.28;;;2.62;50.34
44926;BME280;30662;51.210;7.656;2023-04-06T04:47:40;149504.25;;;2.76;50.13
44926;BME280;30662;51.210;7.656;2023-04-06T04:50:07;149469.00;;;2.62;51.08
44926;BME280;30662;51.210;7.656;2023-04-06T04:52:33;149472.78;;;2.63;51.15
44926;BME280;30662;51.210;7.656;2023-04-06T04:54:59;149479.06;;;2.66;51.21
44926;BME280;30662;51.210;7.656;2023-04-06T04:57:25;149506.75;;;2.77;50.28
44926;BME280;30662;51.210;7.656;2023-04-06T04:59:51;149481.56;;;2.67;50.66
44926;BME280;30662;51.210;7.656;2023-04-06T05:02:17;149461.44;;;2.59;50.60
44926;BME280;30662;51.210;7.656;2023-04-06T05:04:43;149490.41;;;2.70;50.47
44926;BME280;30662;51.210;7.656;2023-04-06T05:07:09;149423.69;;;2.43;51.39
44926;BME280;30662;51.210;7.656;2023-04-06T05:09:35;149447.59;;;2.53;51.06
44926;BME280;30662;51.210;7.656;2023-04-06T05:12:02;149438.81;;;2.49;51.91
44926;BME280;30662;51.210;7.656;2023-04-06T05:14:28;149421.19;;;2.42;51.78
44926;BME280;30662;51.210;7.656;2023-04-06T05:16:54;149408.59;;;2.37;52.26
44926;BME280;30662;51.210;7.656;2023-04-06T05:19:20;149369.59;;;2.21;53.06
44926;BME280;30662;51.210;7.656;2023-04-06T05:21:46;149350.75;;;2.14;53.57
44926;BME280;30662;51.210;7.656;2023-04-06T05:24:12;149379.69;;;2.26;53.55
44926;BME280;30662;51.210;7.656;2023-04-06T05:26:39;149412.34;;;2.39;52.83
44926;BME280;30662;51.210;7.656;2023-04-06T05:29:08;149398.56;;;2.33;53.24
44926;BME280;30662;51.210;7.656;2023-04-06T05:31:34;149368.34;;;2.21;53.51
44926;BME280;30662;51.210;7.656;2023-04-06T05:34:00;149383.47;;;2.27;53.57
44926;BME280;30662;51.210;7.656;2023-04-06T05:36:27;149375.88;;;2.24;54.18
44926;BME280;30662;51.210;7.656;2023-04-06T05:38:53;149397.31;;;2.33;53.26
44926;BME280;30662;51.210;7.656;2023-04-06T05:41:19;149407.34;;;2.37;53.14
44926;BME280;30662;51.210;7.656;2023-04-06T05:43:46;149413.66;;;2.39;53.94
44926;BME280;30662;51.210;7.656;2023-04-06T05:46:12;149399.81;;;2.34;53.55
44926;BME280;30662;51.210;7.656;2023-04-06T05:48:38;149421.19;;;2.42;53.47
44926;BME280;30662;51.210;7.656;2023-04-06T05:51:04;149429.97;;;2.46;53.56
44926;BME280;30662;51.210;7.656;2023-04-06T05:53:32;149461.44;;;2.59;53.38
44926;BME280;30662;51.210;7.656;2023-04-06T05:56:02;149451.41;;;2.55;53.44
44926;BME280;30662;51.210;7.656;2023-04-06T05:58:28;149455.16;;;2.56;53.39
44926;BME280;30662;51.210;7.656;2023-04-06T06:00:58;149455.16;;;2.56;53.60
44926;BME280;30662;51.210;7.656;2023-04-06T06:03:24;149463.94;;;2.60;53.86
44926;BME280;30662;51.210;7.656;2023-04-06T06:05:50;149486.63;;;2.69;53.75
44926;BME280;30662;51.210;7.656;2023-04-06T06:08:16;149489.16;;;2.70;52.63
44926;BME280;30662;51.210;7.656;2023-04-06T06:10:42;149509.28;;;2.78;52.42
44926;BME280;30662;51.210;7.656;2023-04-06T06:13:09;149519.31;;;2.82;52.60
44926;BME280;30662;51.210;7.656;2023-04-06T06:15:36;149494.16;;;2.72;53.01
44926;BME280;30662;51.210;7.656;2023-04-06T06:18:02;149531.91;;;2.87;52.65
44926;BME280;30662;51.210;7.656;2023-04-06T06:20:28;149535.66;;;2.89;52.94
44926;BME280;30662;51.210;7.656;2023-04-06T06:22:54;149540.75;;;2.91;53.08
44926;BME280;30662;51.210;7.656;2023-04-06T06:25:23;149560.88;;;2.99;52.92
44926;BME280;30662;51.210;7.656;2023-04-06T06:27:49;149581.00;;;3.07;53.44
44926;BME280;30662;51.210;7.656;2023-04-06T06:30:15;149593.59;;;3.12;52.86
44926;BME280;30662;51.210;7.656;2023-04-06T06:32:41;149604.91;;;3.17;52.69
44926;BME280;30662;51.210;7.656;2023-04-06T06:35:07;149581.00;;;3.07;53.46
44926;BME280;30662;51.210;7.656;2023-04-06T06:37:33;149596.13;;;3.13;53.53
44926;BME280;30662;51.210;7.656;2023-04-06T06:39:59;149612.50;;;3.20;53.54
44926;BME280;30662;51.210;7.656;2023-04-06T06:42:26;149608.66;;;3.18;53.23
44926;BME280;30662;51.210;7.656;2023-04-06T06:44:52;149593.59;;;3.12;53.90
44926;BME280;30662;51.210;7.656;2023-04-06T06:47:18;149618.75;;;3.22;53.87
44926;BME280;30662;51.210;7.656;2023-04-06T06:49:44;149627.59;;;3.26;53.64
44926;BME280;30662;51.210;7.656;2023-04-06T06:52:10;149645.19;;;3.33;53.85
44926;BME280;30662;51.210;7.656;2023-04-06T06:54:36;149662.81;;;3.40;54.19
44926;BME280;30662;51.210;7.656;2023-04-06T06:57:02;149649.00;;;3.35;54.25
44926;BME280;30662;51.210;7.656;2023-04-06T06:59:28;149672.91;;;3.44;54.04
44926;BME280;30662;51.210;7.656;2023-04-06T07:01:55;149689.28;;;3.51;54.16
44926;BME280;30662;51.210;7.656;2023-04-06T07:04:21;149683.00;;;3.48;54.67
44926;BME280;30662;51.210;7.656;2023-04-06T07:06:47;149698.06;;;3.54;54.76
44926;BME280;30662;51.210;7.656;2023-04-06T07:09:13;149748.44;;;3.75;54.64
44926;BME280;30662;51.210;7.656;2023-04-06T07:11:39;149743.41;;;3.73;54.14
44926;BME280;30662;51.210;7.656;2023-04-06T07:14:05;149725.78;;;3.66;54.74
44926;BME280;30662;51.210;7.656;2023-04-06T07:16:31;149762.31;;;3.80;54.98
44926;BME280;30662;51.210;7.656;2023-04-06T07:18:57;149757.28;;;3.78;54.88
44926;BME280;30662;51.210;7.656;2023-04-06T07:21:23;149745.94;;;3.74;55.25
44926;BME280;30662;51.210;7.656;2023-04-06T07:23:49;149749.69;;;3.75;55.49
44926;BME280;30662;51.210;7.656;2023-04-06T07:26:16;149766.06;;;3.82;55.26
44926;BME280;30662;51.210;7.656;2023-04-06T07:28:42;149774.91;;;3.85;55.86
44926;BME280;30662;51.210;7.656;2023-04-06T07:31:08;149798.84;;;3.95;55.15
44926;BME280;30662;51.210;7.656;2023-04-06T07:33:34;149831.59;;;4.08;55.06
44926;BME280;30662;51.210;7.656;2023-04-06T07:36:00;149817.72;;;4.03;55.97
44926;BME280;30662;51.210;7.656;2023-04-06T07:38:26;149829.09;;;4.07;55.40
44926;BME280;30662;51.210;7.656;2023-04-06T07:40:53;149839.13;;;4.11;55.40
44926;BME280;30662;51.210;7.656;2023-04-06T07:43:19;149858.03;;;4.19;56.22
44926;BME280;30662;51.210;7.656;2023-04-06T07:45:45;149879.47;;;4.28;55.18
44926;BME280;30662;51.210;7.656;2023-04-06T07:48:11;149865.63;;;4.22;55.79
44926;BME280;30662;51.210;7.656;2023-04-06T07:50:37;149875.66;;;4.26;55.25
44926;BME280;30662;51.210;7.656;2023-04-06T07:53:03;149899.63;;;4.36;56.32
44926;BME280;30662;51.210;7.656;2023-04-06T07:55:29;149980.25;;;4.68;55.14
44926;BME280;30662;51.210;7.656;2023-04-06T07:57:55;150006.75;;;4.79;54.49
44926;BME280;30662;51.210;7.656;2023-04-06T08:00:21;150019.31;;;4.84;54.33
44926;BME280;30662;51.210;7.656;2023-04-06T08:02:47;150038.22;;;4.92;55.24
44926;BME280;30662;51.210;7.656;2023-04-06T08:05:13;150088.66;;;5.12;54.21
44926;BME280;30662;51.210;7.656;2023-04-06T08:07:40;150059.69;;;5.01;54.24
44926;BME280;30662;51.210;7.656;2023-04-06T08:10:07;150057.13;;;4.99;54.36
44926;BME280;30662;51.210;7.656;2023-04-06T08:12:34;150088.66;;;5.12;54.24
44926;BME280;30662;51.210;7.656;2023-04-06T08:15:00;150083.63;;;5.10;53.49
44926;BME280;30662;51.210;7.656;2023-04-06T08:17:28;150101.28;;;5.17;53.81
44926;BME280;30662;51.210;7.656;2023-04-06T08:19:55;150077.34;;;5.08;54.05
44926;BME280;30662;51.210;7.656;2023-04-06T08:22:23;150088.66;;;5.12;53.80
44926;BME280;30662;51.210;7.656;2023-04-06T08:24:49;150103.81;;;5.18;54.33
44926;BME280;30662;51.210;7.656;2023-04-06T08:27:15;150145.41;;;5.35;53.46
44926;BME280;30662;51.210;7.656;2023-04-06T08:29:41;150106.31;;;5.19;53.78
44926;BME280;30662;51.210;7.656;2023-04-06T08:32:07;150183.28;;;5.50;53.96
44926;BME280;30662;51.210;7.656;2023-04-06T08:34:33;150219.84;;;5.65;53.50
44926;BME280;30662;51.210;7.656;2023-04-06T08:36:59;150271.50;;;5.86;53.43
44926;BME280;30662;51.210;7.656;2023-04-06T08:39:26;150267.75;;;5.85;53.77
44926;BME280;30662;51.210;7.656;2023-04-06T08:41:53;150290.47;;;5.94;52.98
44926;BME280;30662;51.210;7.656;2023-04-06T08:44:22;150318.25;;;6.05;52.48
44926;BME280;30662;51.210;7.656;2023-04-06T08:46:49;150358.63;;;6.21;51.37
44926;BME280;30662;51.210;7.656;2023-04-06T08:49:16;150337.19;;;6.13;51.38
44926;BME280;30662;51.210;7.656;2023-04-06T08:51:42;150385.16;;;6.32;51.70
44926;BME280;30662;51.210;7.656;2023-04-06T08:54:09;150423.00;;;6.47;50.69
44926;BME280;30662;51.210;7.656;2023-04-06T08:56:38;150436.91;;;6.53;50.45
44926;BME280;30662;51.210;7.656;2023-04-06T08:59:05;150464.63;;;6.64;50.01
44926;BME280;30662;51.210;7.656;2023-04-06T09:01:33;150449.50;;;6.58;50.14
44926;BME280;30662;51.210;7.656;2023-04-06T09:04:05;150458.34;;;6.61;48.94
44926;BME280;30662;51.210;7.656;2023-04-06T09:06:35;150472.25;;;6.67;50.18
44926;BME280;30662;51.210;7.656;2023-04-06T09:09:02;150500.00;;;6.78;47.74
44926;BME280;30662;51.210;7.656;2023-04-06T09:11:29;150544.19;;;6.96;46.00
44926;BME280;30662;51.210;7.656;2023-04-06T09:13:55;150560.63;;;7.03;46.44
44926;BME280;30662;51.210;7.656;2023-04-06T09:16:22;150563.13;;;7.04;45.79
44926;BME280;30662;51.210;7.656;2023-04-06T09:18:49;150560.63;;;7.03;46.04
44926;BME280;30662;51.210;7.656;2023-04-06T09:21:19;150618.69;;;7.26;46.71
44926;BME280;30662;51.210;7.656;2023-04-06T09:23:58;150661.59;;;7.43;47.20
44926;BME280;30662;51.210;7.656;2023-04-06T09:26:25;150718.44;;;7.66;47.26
44926;BME280;30662;51.210;7.656;2023-04-06T09:28:54;150770.25;;;7.87;47.62
44926;BME280;30662;51.210;7.656;2023-04-06T09:31:25;150789.19;;;7.95;46.49
44926;BME280;30662;51.210;7.656;2023-04-06T09:33:52;150815.75;;;8.06;46.13
44926;BME280;30662;51.210;7.656;2023-04-06T09:36:19;150817.00;;;8.06;46.18
44926;BME280;30662;51.210;7.656;2023-04-06T09:38:53;150896.66;;;8.38;45.40
44926;BME280;30662;51.210;7.656;2023-04-06T09:41:32;150881.44;;;8.32;45.52
44926;BME280;30662;51.210;7.656;2023-04-06T09:44:11;151006.63;;;8.82;44.84
44926;BME280;30662;51.210;7.656;2023-04-06T09:49:27;151131.81;;;9.33;43.92
44926;BME280;30662;51.210;7.656;2023-04-06T09:52:00;151131.81;;;9.33;44.05
44926;BME280;30662;51.210;7.656;2023-04-06T09:54:31;151184.94;;;9.54;43.25
44926;BME280;30662;51.210;7.656;2023-04-06T09:57:07;151310.22;;;10.05;42.78
44926;BME280;30662;51.210;7.656;2023-04-06T09:59:52;151273.50;;;9.90;41.70
44926;BME280;30662;51.210;7.656;2023-04-06T10:05:15;151234.31;;;9.74;42.07
44926;BME280;30662;51.210;7.656;2023-04-06T10:07:42;151231.78;;;9.73;42.73
44926;BME280;30662;51.210;7.656;2023-04-06T10:10:27;151276.03;;;9.91;41.88
44926;BME280;30662;51.210;7.656;2023-04-06T10:12:54;151307.69;;;10.04;40.57
44926;BME280;30662;51.210;7.656;2023-04-06T10:15:21;151263.41;;;9.86;41.55
44926;BME280;30662;51.210;7.656;2023-04-06T10:17:48;151363.41;;;10.26;41.02
44926;BME280;30662;51.210;7.656;2023-04-06T10:20:28;151396.34;;;10.39;41.91
44926;BME280;30662;51.210;7.656;2023-04-06T10:22:55;151345.66;;;10.19;40.22
44926;BME280;30662;51.210;7.656;2023-04-06T10:25:30;151365.94;;;10.27;40.43
44926;BME280;30662;51.210;7.656;2023-04-06T10:28:08;151314.00;;;10.06;40.90
44926;BME280;30662;51.210;7.656;2023-04-06T10:30:34;151316.56;;;10.07;40.22
44926;BME280;30662;51.210;7.656;2023-04-06T10:33:12;151322.88;;;10.10;41.50
44926;BME280;30662;51.210;7.656;2023-04-06T10:35:39;151334.28;;;10.14;42.06
44926;BME280;30662;51.210;7.656;2023-04-06T10:38:05;151240.59;;;9.77;42.33
44926;BME280;30662;51.210;7.656;2023-04-06T10:40:31;151197.63;;;9.59;43.19
44926;BME280;30662;51.210;7.656;2023-04-06T10:43:18;151311.47;;;10.05;43.59
44926;BME280;30662;51.210;7.656;2023-04-06T10:45:44;151363.41;;;10.26;42.44
44926;BME280;30662;51.210;7.656;2023-04-06T10:48:18;151245.69;;;9.79;44.01
44926;BME280;30662;51.210;7.656;2023-04-06T10:50:50;151344.38;;;10.18;43.92
44926;BME280;30662;51.210;7.656;2023-04-06T10:53:24;151388.75;;;10.36;43.83
44926;BME280;30662;51.210;7.656;2023-04-06T10:55:51;151279.88;;;9.92;43.76
44926;BME280;30662;51.210;7.656;2023-04-06T10:58:18;151181.16;;;9.53;44.81
44926;BME280;30662;51.210;7.656;2023-04-06T11:00:48;151197.63;;;9.59;44.92
44926;BME280;30662;51.210;7.656;2023-04-06T11:03:17;151293.75;;;9.98;43.92
44926;BME280;30662;51.210;7.656;2023-04-06T11:05:48;151308.94;;;10.04;43.96
44926;BME280;30662;51.210;7.656;2023-04-06T11:08:32;151407.75;;;10.44;43.04
44926;BME280;30662;51.210;7.656;2023-04-06T11:11:16;151440.63;;;10.57;43.00
44926;BME280;30662;51.210;7.656;2023-04-06T11:13:54;151496.38;;;10.80;42.59
44926;BME280;30662;51.210;7.656;2023-04-06T11:16:23;151463.44;;;10.66;43.14
44926;BME280;30662;51.210;7.656;2023-04-06T11:19:00;151343.13;;;10.18;44.39
44926;BME280;30662;51.210;7.656;2023-04-06T11:21:46;151341.84;;;10.17;44.63
44926;BME280;30662;51.210;7.656;2023-04-06T11:24:17;151369.78;;;10.29;45.04
44926;BME280;30662;51.210;7.656;2023-04-06T11:29:19;151340.59;;;10.17;44.27
44926;BME280;30662;51.210;7.656;2023-04-06T11:31:47;151373.56;;;10.30;44.91
44926;BME280;30662;51.210;7.656;2023-04-06T11:34:18;151387.50;;;10.36;44.52
44926;BME280;30662;51.210;7.656;2023-04-06T11:36:46;151482.41;;;10.74;44.66
44926;BME280;30662;51.210;7.656;2023-04-06T11:39:17;151440.63;;;10.57;44.73
44926;BME280;30662;51.210;7.656;2023-04-06T11:41:48;151465.97;;;10.67;43.39
44926;BME280;30662;51.210;7.656;2023-04-06T11:44:14;151354.56;;;10.23;44.02
44926;BME280;30662;51.210;7.656;2023-04-06T11:46:40;151377.34;;;10.32;44.20
44926;BME280;30662;51.210;7.656;2023-04-06T11:49:06;151452.03;;;10.62;43.67
44926;BME280;30662;51.210;7.656;2023-04-06T11:51:35;151357.09;;;10.24;43.19
44926;BME280;30662;51.210;7.656;2023-04-06T11:54:02;151434.31;;;10.55;43.32
44926;BME280;30662;51.210;7.656;2023-04-06T11:56:29;151498.88;;;10.81;43.12
44926;BME280;30662;51.210;7.656;2023-04-06T11:58:56;151529.25;;;10.93;43.16
44926;BME280;30662;51.210;7.656;2023-04-06T12:01:24;151586.28;;;11.16;42.74
44926;BME280;30662;51.210;7.656;2023-04-06T12:03:51;151704.06;;;11.63;42.21
44926;BME280;30662;51.210;7.656;2023-04-06T12:06:18;151592.59;;;11.18;42.40
44926;BME280;30662;51.210;7.656;2023-04-06T12:08:44;151644.53;;;11.39;42.99
44926;BME280;30662;51.210;7.656;2023-04-06T12:11:11;151652.09;;;11.42;42.73
44926;BME280;30662;51.210;7.656;2023-04-06T12:13:37;151628.06;;;11.32;43.88
44926;BME280;30662;51.210;7.656;2023-04-06T12:16:03;151711.69;;;11.66;42.66
44926;BME280;30662;51.210;7.656;2023-04-06T12:18:29;151619.16;;;11.29;42.91
44926;BME280;30662;51.210;7.656;2023-04-06T12:20:56;151676.19;;;11.52;43.31
44926;BME280;30662;51.210;7.656;2023-04-06T12:23:21;151747.16;;;11.80;42.95
44926;BME280;30662;51.210;7.656;2023-04-06T12:25:47;151948.72;;;12.61;41.32
44926;BME280;30662;51.210;7.656;2023-04-06T12:28:13;151873.94;;;12.31;40.66
44926;BME280;30662;51.210;7.656;2023-04-06T12:30:39;151867.56;;;12.29;41.70
44926;BME280;30662;51.210;7.656;2023-04-06T12:33:07;151720.53;;;11.70;42.59
44926;BME280;30662;51.210;7.656;2023-04-06T12:35:33;151762.38;;;11.86;42.97
44926;BME280;30662;51.210;7.656;2023-04-06T12:38:00;151672.38;;;11.50;43.68
44926;BME280;30662;51.210;7.656;2023-04-06T12:40:26;151704.06;;;11.63;43.53
44926;BME280;30662;51.210;7.656;2023-04-06T12:42:52;151751.00;;;11.82;43.30
44926;BME280;30662;51.210;7.656;2023-04-06T12:45:18;151823.22;;;12.11;43.43
44926;BME280;30662;51.210;7.656;2023-04-06T12:47:44;151881.50;;;12.34;43.15
44926;BME280;30662;51.210;7.656;2023-04-06T12:50:10;151782.63;;;11.95;44.52
44926;BME280;30662;51.210;7.656;2023-04-06T12:52:36;151857.44;;;12.25;44.21
44926;BME280;30662;51.210;7.656;2023-04-06T12:55:03;151871.34;;;12.30;43.44
44926;BME280;30662;51.210;7.656;2023-04-06T12:57:30;151785.22;;;11.96;43.77
44926;BME280;30662;51.210;7.656;2023-04-06T12:59:57;151757.31;;;11.84;44.60
44926;BME280;30662;51.210;7.656;2023-04-06T13:02:23;151804.22;;;12.03;43.74
44926;BME280;30662;51.210;7.656;2023-04-06T13:04:49;151816.84;;;12.08;44.19
44926;BME280;30662;51.210;7.656;2023-04-06T13:07:16;151777.59;;;11.93;43.53